Date,TemperatureHighF,TemperatureAvgF,TemperatureLowF,DewpointHighF,DewpointAvgF,DewpointLowF,HumidityHigh,HumidityAvg,HumidityLow,PressureMaxIn,PressureMinIn,WindSpeedMaxMPH,WindSpeedAvgMPH,GustSpeedMaxMPH,PrecipitationSumIn
2013-1-1,21.1,15.4,8.6,12.9,8.2,3.4,81,73,61,30.35,30.20,10,3,13,0.00
2013-1-2,31.6,20.9,8.6,23.2,14.3,3.7,82,75,67,30.28,30.11,14,5,22,0.00
2013-1-3,31.2,25.4,13.9,26.9,19.7,8.9,86,79,68,30.42,30.16,20,6,24,0.00
2013-1-4,36.6,24.2,12.0,25.7,18.0,7.7,92,78,62,30.39,30.26,14,6,25,0.00
2013-1-5,37.3,31.5,24.3,34.2,27.4,19.9,92,85,78,30.26,30.02,19,6,24,0.02
2013-1-6,31.3,25.5,20.8,24.9,18.8,15.1,82,75,59,30.37,30.04,23,9,29,0.02
2013-1-7,40.6,31.1,21.7,28.9,23.9,16.9,85,75,58,30.35,30.10,14,5,25,0.00
2013-1-8,45.3,37.2,30.8,33.9,29.1,25.0,80,73,62,30.13,30.01,12,5,20,0.00
2013-1-9,49.9,39.4,31.2,36.2,31.5,26.9,87,74,51,30.50,30.07,15,4,18,0.00
2013-1-10,41.5,36.4,32.2,40.2,31.9,26.9,95,84,66,30.46,29.77,12,6,23,0.69
2013-1-11,55.5,49.8,41.6,51.2,46.1,40.2,96,88,75,29.78,29.61,16,8,25,0.69
2013-1-12,54.8,36.1,21.8,47.4,29.9,19.3,90,78,67,30.06,29.65,19,9,25,0.03
2013-1-13,21.8,17.2,12.6,19.3,10.6,7.3,90,75,69,30.36,29.99,18,9,24,0.02
2013-1-14,25.0,15.2,8.9,12.2,8.1,4.8,84,74,53,30.55,30.35,8,2,12,0.00
2013-1-15,27.6,16.9,7.1,16.4,9.9,3.0,92,74,54,30.48,30.18,7,1,9,0.00
2013-1-16,38.2,27.1,14.3,28.8,19.5,9.2,81,73,62,30.18,29.93,16,6,25,0.00
2013-1-17,36.2,29.2,22.8,32.1,20.5,14.0,85,71,50,30.47,30.13,15,5,20,0.00
2013-1-18,49.0,37.4,24.2,35.4,27.6,18.3,80,68,55,30.46,29.97,20,9,33,0.00
2013-1-19,53.6,43.7,27.5,38.7,32.7,14.5,76,66,52,30.17,29.82,28,12,41,0.00
2013-1-20,27.2,17.0,12.7,16.3,9.1,5.7,83,71,58,30.41,30.18,24,9,35,0.00
2013-1-21,12.6,7.9,5.0,7.3,0.1,-4.4,79,70,57,30.45,30.33,21,12,28,0.00
2013-1-22,15.5,8.5,1.9,5.3,-0.9,-4.2,77,66,49,30.53,30.41,15,4,20,0.00
2013-1-23,33.7,21.4,12.5,19.8,10.3,3.4,72,62,51,30.48,30.16,23,7,31,0.00
2013-1-24,22.9,15.4,7.8,12.4,3.8,-3.1,72,60,47,30.68,30.30,14,6,20,0.00
2013-1-25,39.8,28.4,20.1,22.2,16.2,8.4,71,60,47,30.31,30.06,17,7,26,0.00
2013-1-26,33.1,22.6,11.2,17.1,11.6,5.1,77,63,47,30.45,30.30,9,4,15,0.00
2013-1-27,45.1,32.9,25.9,43.8,28.7,16.5,95,85,65,30.33,29.84,13,8,24,0.34
2013-1-28,57.3,49.0,44.6,56.1,47.5,43.0,100,95,92,29.94,29.70,13,6,23,0.34
2013-1-29,62.1,52.6,35.9,58.5,50.1,34.3,95,91,87,29.70,29.44,17,7,30,1.02
2013-1-30,35.8,27.8,18.2,34.2,24.7,12.0,95,88,76,29.87,29.30,26,12,33,0.01
2013-1-31,22.1,12.4,5.3,16.6,5.9,-1.8,81,75,67,30.40,29.87,24,14,33,0.01
2013-2-1,23.2,10.0,0.1,18.4,2.5,-6.2,83,71,63,30.51,30.19,20,7,27,0.00
2013-2-2,26.6,22.2,18.3,22.6,16.4,11.1,88,78,70,30.18,30.06,16,6,22,0.01
2013-2-3,29.3,24.3,18.9,23.1,17.4,13.4,90,75,61,30.20,29.96,22,8,28,0.01
2013-2-4,34.9,27.9,19.9,25.6,21.2,15.7,84,76,66,30.02,29.80,13,5,20,0.00
2013-2-5,41.1,31.1,19.7,32.0,25.6,15.6,89,80,67,30.13,29.87,20,6,26,0.00
2013-2-6,46.9,35.6,22.3,35.3,29.6,19.6,92,79,61,30.21,30.00,12,4,20,0.01
2013-2-7,38.8,36.6,32.3,36.4,34.3,30.5,94,91,82,30.11,29.88,16,5,22,0.68
2013-2-8,32.3,30.2,27.5,30.5,26.2,23.5,93,85,80,30.39,30.11,13,5,18,0.68
2013-2-9,37.7,30.9,26.7,31.9,27.0,23.1,90,85,75,30.38,30.00,12,6,19,0.00
2013-2-10,53.6,42.6,34.8,49.6,38.1,29.8,94,85,61,30.00,29.39,20,11,34,0.07
2013-2-11,38.7,34.0,29.6,29.8,25.1,22.8,81,70,63,30.15,29.63,27,15,40,0.07
2013-2-12,41.7,32.6,27.1,28.9,25.5,22.6,85,75,56,30.17,29.94,12,4,15,0.00
2013-2-13,46.6,36.4,27.5,33.4,29.0,23.9,87,75,58,29.94,29.73,12,4,17,0.00
2013-2-14,41.0,37.5,31.7,32.9,30.4,26.9,83,76,66,30.09,29.72,22,10,29,0.00
2013-2-15,33.4,26.5,21.3,26.9,15.5,11.9,84,63,46,30.31,30.09,17,9,24,0.00
2013-2-16,30.4,21.9,14.3,17.2,13.0,7.6,80,69,57,30.29,30.19,14,6,20,0.00
2013-2-17,39.5,27.8,15.6,28.2,19.7,11.5,84,72,56,30.21,29.84,13,7,22,0.00
2013-2-18,54.6,38.4,22.8,45.9,32.5,17.3,92,80,64,29.85,29.49,21,11,30,0.60
2013-2-19,24.1,18.7,12.6,17.2,11.0,6.2,80,72,61,30.35,29.85,24,16,33,0.60
2013-2-20,21.3,14.1,5.3,13.4,6.9,-0.7,78,72,64,30.49,30.34,11,4,20,0.00
2013-2-21,27.1,21.9,14.5,24.8,18.1,10.5,93,85,78,30.39,29.87,17,8,26,0.10
2013-2-22,30.6,28.2,24.8,29.1,24.7,19.5,94,87,79,30.03,29.78,12,7,21,0.11
2013-2-23,29.4,24.3,19.5,21.0,17.8,14.3,81,76,68,30.04,29.99,10,4,14,0.00
2013-2-24,36.2,25.3,10.4,27.0,19.1,6.9,88,78,65,30.14,30.03,5,2,10,0.00
2013-2-25,40.5,32.4,23.2,32.9,27.1,19.9,89,81,68,30.12,29.85,16,5,24,0.00
2013-2-26,35.7,32.4,30.4,30.9,29.7,28.6,100,90,78,29.85,29.52,18,10,26,0.09
2013-2-27,31.9,30.8,29.5,30.9,29.3,28.0,100,94,94,29.87,29.66,15,8,20,0.10
2013-2-28,33.7,31.4,28.8,30.7,29.3,27.0,94,92,87,30.13,29.87,12,7,16,0.01
2013-3-1,30.4,27.6,25.4,27.0,23.7,20.6,93,85,74,30.29,30.11,10,4,15,0.02
2013-3-2,29.6,23.1,13.6,21.1,16.1,8.0,88,75,62,30.31,30.25,10,4,17,0.00
2013-3-3,30.6,21.2,7.8,20.6,13.9,4.0,89,74,60,30.25,30.06,8,2,13,0.00
2013-3-4,36.7,31.7,27.1,30.2,27.0,20.8,91,83,76,30.07,29.85,16,10,24,0.02
2013-3-5,32.5,30.5,29.0,30.3,26.6,23.4,93,85,74,30.18,29.88,21,10,29,0.04
2013-3-6,28.9,26.2,22.4,24.7,21.0,18.3,84,80,76,30.40,30.18,17,7,25,0.04
2013-3-7,33.6,27.3,22.7,26.1,22.2,18.5,88,81,73,30.45,30.37,7,3,12,0.00
2013-3-8,41.7,33.4,24.2,34.2,28.7,21.4,90,83,72,30.42,30.18,11,6,18,0.00
2013-3-9,44.1,38.9,35.5,40.5,36.1,32.4,94,89,83,30.18,29.76,12,6,20,0.59
2013-3-10,49.4,45.0,41.1,48.0,43.5,38.4,99,94,90,29.78,29.54,8,3,17,0.64
2013-3-11,41.4,33.3,29.2,40.1,30.8,22.6,95,91,76,29.95,29.63,23,10,29,0.01
2013-3-12,36.1,30.6,25.6,30.5,24.4,18.1,88,78,69,30.20,29.95,23,12,32,0.01
2013-3-13,35.7,28.1,22.1,20.2,18.1,15.6,86,67,47,30.43,30.20,21,10,29,0.00
2013-3-14,51.9,37.5,24.8,35.8,28.4,19.2,86,71,50,30.40,30.07,12,3,20,0.00
2013-3-15,51.9,41.9,31.4,43.9,35.9,28.2,90,79,67,30.06,29.66,12,3,16,0.00
2013-3-16,41.4,36.1,32.8,37.8,32.8,28.4,94,88,78,30.15,29.66,15,6,21,0.00
2013-3-17,38.2,32.7,28.3,28.8,25.8,21.1,84,76,66,30.18,29.89,13,8,20,0.00
2013-3-18,41.3,32.9,26.2,34.8,27.7,17.8,93,81,63,29.99,29.73,26,10,33,0.00
2013-3-19,39.9,29.2,20.5,19.8,15.3,11.0,73,57,37,30.21,29.96,22,12,30,0.00
2013-3-20,29.8,22.9,16.5,20.2,10.5,3.2,75,59,47,30.29,30.15,23,14,36,0.00
2013-3-21,36.9,24.4,13.6,16.8,11.8,7.1,77,60,41,30.17,30.02,12,3,15,0.00
2013-3-22,45.3,32.4,19.7,24.4,19.4,14.2,80,61,38,30.10,30.00,8,2,12,0.00
2013-3-23,48.1,38.3,29.3,28.7,25.1,22.6,91,60,42,30.11,29.95,14,5,22,0.01
2013-3-24,31.9,30.1,28.8,30.4,28.4,27.0,94,93,92,30.00,29.74,14,8,23,0.06
2013-3-25,33.9,30.9,28.3,28.7,27.0,25.0,94,86,72,30.20,29.86,16,8,24,0.07
2013-3-26,39.1,33.2,25.7,26.7,25.0,21.5,89,72,55,30.34,30.20,16,7,22,0.00
2013-3-27,43.6,35.3,25.5,27.7,24.7,20.5,84,66,47,30.40,30.32,8,2,12,0.00
2013-3-28,51.5,39.3,26.0,34.6,28.6,21.0,83,67,49,30.38,30.27,9,3,13,0.00
2013-3-29,59.9,46.4,33.8,38.9,33.4,28.5,82,63,38,30.30,30.19,11,3,13,0.00
2013-3-30,56.1,46.3,36.0,44.3,39.7,31.8,90,78,57,30.20,29.88,14,5,26,0.00
2013-3-31,58.6,48.9,37.9,46.1,39.1,27.5,94,71,41,30.01,29.83,25,10,33,0.00
2013-4-1,42.0,34.9,27.4,27.2,21.4,18.5,80,59,40,30.28,30.01,18,9,26,0.00
2013-4-2,46.2,34.8,23.1,24.4,20.3,15.4,83,58,32,30.37,30.28,18,5,23,0.00
2013-4-3,50.9,37.6,24.5,22.7,19.7,17.0,76,51,29,30.46,30.28,13,3,18,0.00
2013-4-4,60.8,46.0,30.9,36.1,26.1,19.7,67,48,28,30.28,30.01,12,3,20,0.00
2013-4-5,61.9,49.2,35.7,36.7,31.4,26.8,81,53,30,30.20,29.99,12,4,21,0.00
2013-4-6,70.3,58.1,45.5,50.9,39.6,27.4,68,51,38,29.99,29.60,21,11,32,0.00
2013-4-7,72.4,56.1,40.2,48.5,43.3,36.5,89,64,40,29.93,29.73,13,4,19,0.00
2013-4-8,73.4,62.8,55.0,60.1,55.5,44.7,94,78,59,29.82,29.53,19,6,35,0.87
2013-4-9,76.9,67.2,54.8,63.2,59.4,50.5,89,77,60,29.81,29.73,16,6,29,0.00
2013-4-10,54.6,45.8,42.3,50.5,43.4,39.3,94,91,86,29.94,29.64,18,8,24,1.38
2013-4-11,48.2,43.2,37.1,45.6,39.3,30.0,95,86,74,29.69,29.60,16,6,27,1.39
2013-4-12,44.0,39.5,36.7,35.2,33.0,31.1,87,78,68,29.95,29.64,18,10,26,0.00
2013-4-13,53.0,43.4,35.0,39.0,31.6,25.5,76,64,49,30.03,29.90,17,8,24,0.00
2013-4-14,76.5,60.6,46.0,55.3,47.0,36.9,90,63,39,29.91,29.50,17,10,33,0.68
2013-4-15,60.2,52.3,42.0,55.1,46.4,36.6,93,81,57,30.01,29.65,13,4,20,0.70
2013-4-16,50.2,44.5,37.4,40.6,36.3,31.9,86,74,61,30.22,29.99,12,4,17,0.01
2013-4-17,58.9,47.9,42.6,57.2,43.9,36.5,95,86,71,30.19,29.61,23,10,37,2.44
2013-4-18,62.0,51.0,37.8,60.3,48.2,31.0,96,90,74,29.71,29.40,26,10,37,0.20
2013-4-19,42.5,37.7,34.1,31.4,29.3,27.6,79,72,59,30.07,29.65,22,14,34,0.20
2013-4-20,50.8,39.7,29.8,32.0,28.4,24.7,84,65,44,30.35,30.07,11,4,16,0.00
2013-4-21,61.0,48.6,37.2,45.7,38.2,31.1,80,68,53,30.39,30.22,15,8,25,0.00
2013-4-22,69.0,57.5,43.7,49.8,42.0,36.3,81,58,35,30.23,29.96,14,6,21,0.02
2013-4-23,55.0,42.3,37.4,50.0,39.1,33.9,91,88,82,30.06,29.92,15,7,24,0.31
2013-4-24,52.1,42.4,34.4,34.6,31.5,28.8,92,67,41,30.16,30.03,17,8,23,0.31
2013-4-25,58.7,48.0,38.7,37.5,33.9,30.2,79,60,39,30.31,30.13,18,8,23,0.00
2013-4-26,64.2,53.8,42.9,48.4,43.1,35.8,78,67,54,30.28,30.20,18,8,32,0.00
2013-4-27,59.9,51.9,42.5,49.9,46.4,39.6,93,82,61,30.26,29.97,10,3,17,0.10
2013-4-28,71.8,58.8,49.3,53.9,50.5,47.4,94,76,49,29.97,29.81,10,3,15,0.11
2013-4-29,81.2,65.1,49.0,63.9,55.6,46.5,91,73,51,29.87,29.64,15,7,53,0.00
2013-4-30,85.7,74.7,64.9,61.0,58.1,53.7,82,59,34,29.86,29.65,17,8,28,0.00
2013-5-1,85.0,72.8,58.2,57.7,54.6,48.1,76,55,35,30.09,29.86,15,5,26,0.00
2013-5-2,58.2,47.8,39.3,48.2,41.7,36.9,91,80,69,30.24,30.08,17,9,25,0.09
2013-5-3,49.4,40.5,37.0,48.0,38.6,35.1,95,93,91,30.16,29.80,14,7,24,1.93
2013-5-4,61.5,54.0,46.8,55.9,51.4,45.2,99,91,80,30.03,29.81,9,3,17,0.06
2013-5-5,73.2,60.2,48.9,59.7,52.7,46.8,95,78,47,30.03,29.90,12,3,18,0.06
2013-5-6,76.2,65.3,55.2,54.9,52.4,50.3,87,65,42,30.03,29.94,12,3,20,0.00
2013-5-7,81.9,68.2,51.9,52.8,49.3,40.4,87,55,30,30.02,29.94,7,1,10,0.00
2013-5-8,82.7,68.7,52.7,58.2,51.9,45.8,82,58,34,30.01,29.92,9,1,13,0.00
2013-5-9,69.4,63.8,59.3,63.5,59.7,56.4,93,87,77,29.94,29.76,11,4,18,0.25
2013-5-10,60.0,54.1,48.5,58.2,50.7,45.4,94,88,82,30.00,29.80,16,5,22,0.25
2013-5-11,58.6,51.7,44.6,50.9,38.5,28.7,95,64,39,30.15,29.94,26,9,41,0.01
2013-5-12,58.1,48.2,37.4,34.1,31.0,27.5,77,53,36,30.23,30.11,17,6,25,0.01
2013-5-13,72.7,56.8,35.9,46.6,38.8,30.6,88,55,26,30.19,29.93,11,3,17,0.00
2013-5-14,91.1,73.9,56.8,66.0,56.6,43.6,74,56,41,29.93,29.64,17,7,25,0.00
2013-5-15,84.0,76.0,67.4,61.2,56.7,48.7,69,53,30,29.82,29.69,14,5,26,0.06
2013-5-16,83.4,71.5,60.9,64.9,60.0,55.8,90,69,47,29.90,29.79,9,3,15,0.14
2013-5-17,80.6,71.4,60.1,63.7,60.2,54.9,84,69,49,29.94,29.86,8,2,15,0.00
2013-5-18,81.9,72.1,62.2,67.2,63.4,59.9,94,76,55,29.97,29.82,9,3,14,0.00
2013-5-19,89.0,72.3,62.7,73.0,65.7,58.8,93,80,56,29.85,29.62,36,6,50,1.25
2013-5-20,82.9,70.1,61.3,66.0,61.5,58.3,91,76,50,29.75,29.52,18,7,26,0.26
2013-5-21,78.7,69.2,61.1,62.9,60.2,57.9,93,75,55,29.68,29.62,14,5,22,0.26
2013-5-22,69.7,63.2,58.6,58.6,56.0,54.3,89,78,59,29.81,29.62,13,5,22,0.00
2013-5-23,68.8,59.7,53.7,54.7,51.7,47.5,93,76,51,30.24,29.80,13,6,20,0.01
2013-5-24,69.9,57.6,46.1,48.4,43.6,38.7,92,63,36,30.42,30.24,11,3,15,0.01
2013-5-25,57.7,52.9,48.1,51.6,46.7,43.3,93,80,60,30.39,30.19,12,5,20,0.65
2013-5-26,63.9,57.2,51.0,59.6,54.0,47.5,94,89,82,30.22,29.98,14,7,23,0.54
2013-5-27,72.5,65.5,59.0,66.4,62.5,57.3,95,90,81,29.98,29.71,12,4,23,0.24
2013-5-28,78.7,70.2,62.9,71.6,66.1,60.2,93,87,77,29.88,29.63,26,6,35,0.51
2013-5-29,84.9,73.5,61.0,72.0,65.7,59.3,95,78,57,29.94,29.73,16,6,24,1.32
2013-5-30,83.4,71.4,62.7,70.2,64.7,59.3,93,80,61,29.79,29.64,19,8,34,0.61
2013-5-31,74.9,66.8,61.9,68.6,63.2,57.5,95,88,73,29.83,29.67,14,5,25,0.66
2013-6-1,76.2,67.4,61.5,65.2,61.0,57.1,94,81,56,29.81,29.64,15,6,20,0.66
2013-6-2,62.3,58.5,52.6,58.5,52.0,48.3,88,79,68,30.04,29.81,16,6,22,0.00
2013-6-3,71.0,60.0,48.3,53.9,50.0,45.8,93,72,48,30.12,29.99,8,2,13,0.00
2013-6-4,74.3,64.1,52.6,57.8,53.4,48.2,86,70,52,30.12,29.97,13,4,22,0.00
2013-6-5,78.7,68.2,58.2,62.7,59.0,54.8,92,74,52,30.02,29.85,6,2,10,0.04
2013-6-6,73.9,64.7,58.9,61.1,58.8,56.8,95,82,59,29.90,29.84,8,3,14,0.05
2013-6-7,72.2,63.4,56.9,56.9,54.9,52.4,92,75,56,29.95,29.88,8,3,14,0.00
2013-6-8,80.2,67.7,55.1,58.6,55.3,52.0,92,67,45,29.94,29.86,8,2,14,0.00
2013-6-9,73.2,67.3,62.5,64.0,60.3,55.6,91,78,66,29.89,29.72,11,5,20,0.09
2013-6-10,78.7,68.4,61.3,63.7,61.4,59.3,96,80,57,29.87,29.72,11,3,15,0.09
2013-6-11,91.0,76.0,60.7,74.3,65.9,57.4,91,73,52,29.91,29.75,11,3,19,0.00
2013-6-12,93.1,82.4,73.1,75.3,71.0,63.0,84,70,53,29.84,29.59,19,6,27,0.00
2013-6-13,84.6,75.1,66.0,65.0,59.8,56.3,88,61,40,29.97,29.68,22,6,30,0.00
2013-6-14,80.6,71.2,60.4,64.0,59.2,54.8,86,67,50,30.10,29.89,8,3,17,0.00
2013-6-15,80.3,71.5,65.5,72.1,66.5,61.7,92,85,71,30.03,29.84,17,4,29,0.50
2013-6-16,83.9,73.4,66.1,70.5,66.6,61.8,93,80,61,29.94,29.87,9,3,13,0.50
2013-6-17,86.6,75.7,63.5,69.9,65.6,60.1,95,73,48,29.94,29.86,13,2,22,0.02
2013-6-18,83.4,73.7,65.0,66.1,63.0,58.3,91,70,52,29.99,29.85,8,4,13,0.02
2013-6-19,89.4,73.7,58.6,63.1,58.5,52.8,83,61,36,30.08,29.99,6,2,12,0.00
2013-6-20,89.7,78.0,63.0,70.1,64.8,58.7,86,66,46,30.07,29.96,12,4,20,0.00
2013-6-21,92.1,80.4,74.1,75.4,70.3,66.6,83,72,56,30.01,29.87,14,6,25,0.00
2013-6-22,94.2,82.4,73.2,75.7,72.2,65.1,85,73,51,29.99,29.85,13,6,20,0.00
2013-6-23,86.5,74.7,68.5,73.9,66.8,62.6,88,77,63,30.00,29.81,15,4,21,0.89
2013-6-24,84.6,72.2,66.9,76.3,67.6,63.6,93,86,63,30.04,29.82,20,4,28,0.76
2013-6-25,90.2,79.0,69.8,77.1,72.1,67.4,93,80,58,29.87,29.74,13,4,21,0.01
2013-6-26,87.1,78.3,68.4,77.3,72.7,65.7,94,83,69,29.80,29.67,12,4,20,0.26
2013-6-27,88.3,78.8,71.1,74.0,70.1,67.1,92,76,54,29.84,29.75,18,4,24,0.26
2013-6-28,83.9,75.8,67.4,67.2,62.3,58.6,88,65,43,29.79,29.65,21,8,32,0.00
2013-6-29,74.1,67.7,64.4,66.3,62.6,60.6,91,84,68,29.78,29.63,15,6,23,0.09
2013-6-30,79.4,69.9,62.5,63.8,60.8,58.4,91,74,52,29.98,29.78,14,4,21,0.09
2013-7-1,79.8,69.6,59.0,58.5,54.8,51.4,81,61,38,30.04,29.97,13,4,22,0.00
2013-7-2,80.8,69.8,58.0,58.4,55.5,51.9,81,62,42,30.07,29.99,11,3,18,0.00
2013-7-3,82.4,69.0,58.0,59.8,56.5,52.1,88,67,41,30.06,29.98,5,1,9,0.00
2013-7-4,87.3,74.2,61.6,65.2,61.2,55.3,91,67,41,30.06,29.96,7,2,13,0.00
2013-7-5,87.3,76.0,63.5,67.4,63.4,59.3,88,67,46,30.03,29.94,10,3,15,0.00
2013-7-6,90.7,77.2,64.4,71.1,66.4,61.6,93,71,48,30.00,29.90,9,4,15,0.00
2013-7-7,90.1,79.5,68.3,73.5,68.9,63.3,86,71,53,29.96,29.90,11,4,17,0.00
2013-7-8,86.8,79.0,72.2,75.6,71.6,68.1,89,79,67,29.99,29.91,12,5,24,0.10
2013-7-9,90.7,82.9,76.9,78.2,74.6,71.1,86,76,65,29.95,29.82,11,3,17,0.10
2013-7-10,86.0,79.4,65.6,74.5,67.2,59.3,88,68,51,30.00,29.80,15,5,20,0.00
2013-7-11,84.7,72.1,60.2,64.3,59.5,56.9,92,67,41,30.08,30.00,9,2,13,0.00
2013-7-12,85.2,77.0,60.6,63.5,59.0,54.7,83,56,41,30.12,30.02,8,2,15,0.00
2013-7-13,85.8,72.6,58.5,64.9,60.7,53.8,88,68,47,30.10,30.02,7,2,12,0.00
2013-7-14,87.8,77.0,64.2,70.2,65.9,60.4,91,70,49,30.12,30.06,10,3,15,0.00
2013-7-15,93.0,81.5,70.7,75.5,71.6,67.0,90,73,53,30.20,30.12,6,2,12,0.00
2013-7-16,93.1,82.5,72.6,77.0,73.7,70.4,94,76,57,30.25,30.18,6,2,11,0.00
2013-7-17,96.7,84.6,72.3,78.6,73.9,69.2,92,72,49,30.28,30.13,6,1,7,0.00
2013-7-18,96.2,85.0,75.0,77.5,74.2,71.6,90,72,50,30.16,29.93,7,2,12,0.00
2013-7-19,96.0,85.4,75.7,75.3,72.8,70.8,86,68,48,29.93,29.76,10,4,16,0.00
2013-7-20,89.4,80.8,71.4,71.8,66.7,62.7,82,64,42,29.89,29.80,9,3,13,0.02
2013-7-21,82.1,72.8,67.4,72.9,67.8,63.1,93,85,69,29.89,29.79,8,2,13,0.35
2013-7-22,89.8,76.5,65.6,76.2,69.9,63.3,96,81,62,29.85,29.71,14,2,21,0.35
2013-7-23,78.7,71.4,64.8,68.5,63.5,60.2,92,77,60,29.92,29.72,12,4,18,0.00
2013-7-24,77.8,68.3,59.0,60.3,57.5,55.8,92,70,49,30.04,29.91,8,2,12,0.00
2013-7-25,82.9,70.1,55.2,64.8,59.4,51.9,90,71,51,30.09,30.00,6,2,12,0.00
2013-7-26,81.2,70.0,60.0,71.3,62.4,55.4,94,78,53,30.00,29.87,16,4,23,0.41
2013-7-27,68.1,61.3,53.3,56.2,51.3,47.2,91,71,51,30.00,29.93,18,7,26,0.41
2013-7-28,72.6,62.1,51.0,57.0,52.1,47.0,88,71,53,30.05,29.95,14,4,21,0.00
2013-7-29,79.3,66.7,50.7,62.1,56.5,48.2,94,72,49,30.14,30.05,5,1,8,0.00
2013-7-30,70.5,67.1,63.7,67.1,64.0,59.6,95,90,76,30.09,29.99,8,3,15,0.56
2013-7-31,79.1,70.7,66.2,69.3,66.2,64.0,96,87,67,30.05,29.96,9,3,12,0.57
2013-8-1,86.8,73.6,62.6,68.1,64.0,60.5,95,74,46,30.04,29.90,9,2,13,0.00
2013-8-2,87.1,76.1,67.9,71.8,67.2,62.6,91,75,55,29.94,29.84,8,3,14,0.42
2013-8-3,82.0,72.4,63.4,64.2,61.2,56.9,89,70,44,30.12,29.94,9,2,14,0.42
2013-8-4,82.2,70.4,57.3,62.4,58.4,54.3,92,68,45,30.17,30.05,6,1,9,0.00
2013-8-5,79.5,69.6,61.0,71.7,64.4,57.2,92,84,75,30.07,29.82,8,3,14,0.00
2013-8-6,89.8,76.5,66.5,76.9,70.7,64.4,96,84,59,29.88,29.74,7,2,15,0.00
2013-8-7,87.0,77.4,68.8,75.4,70.4,63.7,93,80,58,29.93,29.76,10,3,14,0.00
2013-8-8,81.5,72.1,62.5,68.6,64.8,59.5,92,79,59,29.97,29.91,8,2,12,0.00
2013-8-9,84.4,73.1,62.4,69.7,65.2,60.3,94,78,55,30.06,29.95,8,1,10,0.00
2013-8-10,81.7,70.8,61.0,66.0,60.3,57.0,91,72,46,30.15,30.06,9,3,15,0.00
2013-8-11,86.0,72.7,58.3,69.5,62.5,55.3,92,72,52,30.12,30.00,8,2,12,0.00
2013-8-12,81.1,72.6,65.3,72.1,65.4,59.9,89,79,60,30.01,29.88,11,2,15,0.01
2013-8-13,75.9,66.4,56.1,62.0,57.0,50.2,92,73,50,30.15,29.95,11,3,16,0.01
2013-8-14,76.4,62.6,48.0,58.5,52.1,45.5,93,71,44,30.22,30.12,7,1,12,0.00
2013-8-15,74.1,62.8,55.5,58.6,54.9,51.1,90,77,52,30.17,30.08,4,0,13,0.00
2013-8-16,80.2,67.0,51.9,61.1,56.0,49.1,92,70,45,30.17,30.11,8,1,12,0.00
2013-8-17,80.5,67.7,53.2,61.9,57.2,50.6,93,71,48,30.19,30.11,8,2,14,0.00
2013-8-18,83.2,69.5,53.2,66.4,59.4,50.5,93,73,52,30.18,30.06,9,1,14,0.00
2013-8-19,85.7,73.4,60.1,69.0,64.0,56.5,91,74,54,30.10,29.99,7,2,12,0.00
2013-8-20,87.9,76.8,66.1,70.2,66.3,62.1,88,72,50,30.06,29.97,9,3,15,0.00
2013-8-21,90.0,78.0,67.3,71.4,68.0,63.7,90,73,52,30.05,29.95,10,3,17,0.00
2013-8-22,82.9,76.3,70.0,72.9,69.5,65.6,89,80,70,30.07,29.98,12,3,18,0.00
2013-8-23,86.0,74.9,65.4,71.2,67.4,63.3,94,79,58,30.11,30.04,8,2,13,0.00
2013-8-24,89.0,76.0,64.0,73.6,67.9,61.0,92,77,60,30.18,30.09,8,3,13,0.00
2013-8-25,91.5,78.5,67.9,73.1,68.2,64.2,88,72,48,30.21,30.10,12,4,18,0.00
2013-8-26,94.0,80.4,66.8,76.0,69.9,63.2,90,72,52,30.14,29.96,7,3,15,0.00
2013-8-27,95.7,82.5,71.9,74.8,70.5,65.3,90,69,47,29.99,29.85,12,4,18,0.00
2013-8-28,97.1,83.8,72.7,77.4,70.9,65.3,90,67,47,29.95,29.89,11,3,14,0.00
2013-8-29,91.6,81.1,71.5,78.4,74.6,69.3,94,82,64,30.01,29.90,8,2,12,0.00
2013-8-30,99.4,85.2,74.9,78.6,74.8,71.1,95,74,45,29.91,29.73,7,3,13,0.01
2013-8-31,88.7,80.3,71.7,76.4,72.1,68.3,91,77,63,29.77,29.71,10,3,15,0.00
2013-9-1,88.6,76.5,66.7,74.5,66.7,60.3,96,74,52,29.85,29.73,12,4,19,0.00
2013-9-2,80.2,69.1,59.6,63.4,58.5,54.6,92,71,43,29.99,29.84,13,4,15,0.00
2013-9-3,80.6,65.2,51.0,60.4,55.1,48.2,92,72,44,30.09,29.99,6,1,12,0.00
2013-9-4,87.6,70.9,52.4,65.0,58.0,49.6,93,67,42,30.13,30.04,8,1,12,0.00
2013-9-5,89.8,76.2,61.9,70.1,63.5,56.9,86,66,47,30.16,30.09,6,1,10,0.00
2013-9-6,89.0,75.1,61.6,68.0,63.7,59.3,92,71,42,30.14,29.96,8,3,14,0.00
2013-9-7,93.5,78.1,64.4,72.6,66.8,59.5,84,70,47,29.98,29.83,11,3,20,0.00
2013-9-8,85.2,78.1,72.6,73.6,70.5,67.9,90,78,67,29.92,29.79,10,4,20,0.00
2013-9-9,100.0,83.4,71.4,73.3,69.7,63.1,94,67,37,29.87,29.78,10,4,15,0.00
2013-9-10,96.7,83.0,71.0,70.9,65.4,61.8,76,57,37,29.99,29.87,12,5,18,0.00
2013-9-11,91.0,78.9,72.4,70.4,67.4,64.0,85,69,49,30.04,29.98,11,3,17,0.00
2013-9-12,81.7,72.4,61.5,69.2,58.8,49.2,94,67,33,30.09,29.99,15,5,23,0.15
2013-9-13,72.9,61.2,51.0,50.8,45.7,38.7,85,60,30,30.19,30.08,11,3,15,0.00
2013-9-14,74.1,59.3,45.3,50.5,46.1,40.4,88,64,39,30.18,29.98,8,3,14,0.00
2013-9-15,66.8,61.5,56.6,61.8,54.1,45.4,92,77,62,30.17,29.94,9,4,16,0.20
2013-9-16,70.2,60.4,53.5,55.5,52.7,48.0,93,77,56,30.33,30.17,10,4,15,0.20
2013-9-17,69.0,60.5,49.9,61.0,54.9,46.7,92,82,70,30.28,30.05,8,4,13,0.00
2013-9-18,89.0,73.6,60.8,71.5,65.6,57.2,91,77,55,30.05,29.83,12,5,20,0.00
2013-9-19,93.3,78.6,66.5,71.6,68.2,63.0,93,73,45,29.89,29.71,18,5,25,0.92
2013-9-20,69.7,64.7,56.4,65.5,57.7,50.7,95,79,53,29.91,29.80,15,6,20,0.94
2013-9-21,68.8,56.1,48.9,51.5,48.9,45.8,90,78,50,29.97,29.89,13,6,20,0.00
2013-9-22,73.1,58.5,46.0,54.3,49.4,43.5,93,74,48,30.04,29.93,7,2,12,0.00
2013-9-23,74.4,59.9,47.6,55.6,50.1,44.8,91,72,48,30.04,29.92,9,4,20,0.00
2013-9-24,76.0,62.9,50.7,60.4,53.7,46.1,89,73,57,29.95,29.82,9,4,14,0.00
2013-9-25,79.7,66.7,54.0,61.4,56.0,50.2,88,70,51,29.91,29.84,9,3,14,0.00
2013-9-26,84.3,68.7,54.6,65.1,58.0,51.3,89,70,49,29.98,29.88,10,3,17,0.00
2013-9-27,82.5,69.2,57.9,64.8,57.3,52.9,84,68,45,30.07,29.95,12,5,17,0.00
2013-9-28,78.9,66.0,55.5,67.5,59.5,53.1,92,80,61,30.02,29.87,20,6,26,0.07
2013-9-29,73.7,58.7,45.0,54.6,47.4,43.1,95,70,36,30.09,29.97,6,1,12,0.09
2013-9-30,78.1,62.2,47.6,58.1,50.9,43.0,91,69,44,29.97,29.83,13,4,19,0.00
2013-10-1,84.0,70.1,59.9,67.8,62.2,57.6,94,78,52,29.94,29.83,12,4,21,0.00
2013-10-2,85.5,72.0,59.5,68.1,63.3,57.8,95,76,47,30.02,29.88,9,2,15,0.00
2013-10-3,80.2,70.6,65.5,70.1,66.1,62.8,94,86,71,29.89,29.76,13,4,23,0.02
2013-10-4,86.8,75.0,66.3,72.2,67.5,63.3,95,79,56,29.89,29.81,14,5,20,0.02
2013-10-5,73.4,66.4,50.7,69.2,61.3,47.1,93,84,70,29.86,29.79,13,4,18,0.01
2013-10-6,50.5,46.6,41.2,47.1,41.7,37.3,92,83,66,29.85,29.77,10,4,16,0.04
2013-10-7,71.6,57.1,46.5,49.3,47.1,44.3,93,72,42,30.08,29.85,12,4,16,0.04
2013-10-8,77.4,61.9,48.4,52.1,48.0,44.2,87,63,36,30.16,30.06,10,3,18,0.00
2013-10-9,75.0,59.4,45.5,51.8,46.6,42.4,91,66,36,30.18,30.08,8,2,12,0.00
2013-10-10,77.1,61.5,47.7,57.8,51.2,43.9,90,71,47,30.13,29.96,10,2,16,0.00
2013-10-11,78.1,65.4,53.5,60.5,55.4,51.2,94,72,48,29.99,29.82,15,6,25,0.00
2013-10-12,70.7,62.9,47.3,59.7,48.8,39.1,88,63,33,30.22,29.85,17,5,22,0.00
2013-10-13,67.1,52.5,39.0,42.8,35.9,31.8,86,58,28,30.42,30.21,10,1,13,0.00
2013-10-14,65.8,53.1,38.2,46.3,39.4,32.1,86,61,43,30.37,30.00,12,4,20,0.00
2013-10-15,68.5,59.2,48.3,62.1,51.0,40.6,94,75,51,30.00,29.80,15,7,23,0.02
2013-10-16,52.2,50.1,48.4,44.2,42.8,40.9,82,76,72,29.99,29.91,16,6,22,0.02
2013-10-17,62.9,52.4,45.8,46.2,41.2,36.9,92,68,38,29.97,29.83,11,3,20,0.01
2013-10-18,51.7,46.9,42.3,42.2,38.6,36.8,89,73,59,30.03,29.88,16,6,23,0.00
2013-10-19,57.0,46.7,34.9,39.6,36.6,31.7,92,70,44,29.99,29.82,13,5,22,0.00
2013-10-20,68.1,53.6,40.8,46.5,42.2,36.5,88,67,42,29.86,29.70,12,4,21,0.00
2013-10-21,56.8,43.5,32.2,46.4,32.1,25.1,84,66,41,30.04,29.83,19,7,29,0.01
2013-10-22,43.3,37.9,31.5,40.8,34.6,25.8,92,88,78,30.03,29.83,10,3,15,0.22
2013-10-23,44.8,38.2,32.2,34.9,30.9,28.1,90,76,54,30.12,30.02,12,5,16,0.22
2013-10-24,41.4,36.3,30.7,34.7,27.1,23.2,88,70,54,30.40,30.10,15,6,20,0.01
2013-10-25,54.9,40.7,26.8,33.8,27.7,23.4,89,63,33,30.47,30.11,13,4,20,0.00
2013-10-26,53.7,45.8,35.1,37.2,30.4,27.0,73,56,37,30.15,29.97,20,7,29,0.00
2013-10-27,58.2,42.4,27.4,34.8,29.7,22.9,87,63,40,30.13,29.97,11,2,18,0.00
2013-10-28,65.1,47.7,34.1,39.8,34.0,27.5,80,62,35,30.28,30.04,9,3,16,0.00
2013-10-29,56.1,47.8,40.0,51.0,42.4,37.0,94,82,62,30.27,30.05,9,5,15,0.00
2013-10-30,63.4,57.1,52.7,62.2,55.8,50.7,97,95,93,30.05,29.69,19,5,34,2.65
2013-10-31,63.3,54.5,45.2,62.1,52.6,42.7,96,93,90,29.69,29.36,14,7,20,0.36
2013-11-1,50.8,46.7,43.0,44.8,42.0,39.4,94,84,73,29.81,29.51,16,4,20,0.36
2013-11-2,52.1,44.5,33.4,42.0,35.9,29.1,88,73,50,30.18,29.80,17,7,25,0.00
2013-11-3,55.4,42.8,29.8,38.2,33.3,27.0,90,71,48,30.27,30.10,11,4,18,0.01
2013-11-4,56.7,50.6,44.4,46.1,41.3,36.3,76,70,62,30.15,30.03,17,7,26,0.01
2013-11-5,56.2,53.7,51.5,53.8,50.0,45.9,93,88,75,30.20,29.87,14,7,28,0.09
2013-11-6,57.3,44.6,32.6,55.6,39.8,27.4,94,83,67,30.28,29.79,21,9,29,0.01
2013-11-7,46.1,37.0,28.2,36.6,30.1,24.4,92,77,60,30.33,30.27,17,4,24,0.01
2013-11-8,50.1,41.4,27.6,36.8,31.3,23.8,88,69,54,30.34,29.91,17,6,25,0.00
2013-11-9,61.1,52.1,44.5,40.4,38.2,33.3,77,60,43,30.23,29.91,19,10,26,0.00
2013-11-10,49.0,40.2,31.5,33.7,30.6,26.3,83,69,52,30.44,30.22,13,4,20,0.00
2013-11-11,51.2,40.1,24.1,39.3,31.4,17.6,92,72,58,30.62,30.11,15,6,23,0.00
2013-11-12,29.9,22.2,15.2,19.8,15.1,11.0,84,74,58,30.84,30.62,13,4,17,0.00
2013-11-13,44.6,31.4,17.7,21.8,17.5,13.1,84,59,35,30.69,30.19,14,5,24,0.00
2013-11-14,53.5,43.0,34.4,29.2,25.1,19.4,59,49,38,30.19,29.94,16,8,26,0.00
2013-11-15,51.4,43.5,36.9,37.8,31.8,23.7,80,64,53,29.99,29.84,12,5,20,0.00
2013-11-16,60.7,54.1,42.9,56.5,50.3,37.4,92,87,80,29.84,29.49,16,9,31,0.09
2013-11-17,71.0,55.7,44.5,63.6,50.2,38.6,93,82,67,29.91,29.18,33,10,48,0.22
2013-11-18,47.1,40.3,30.3,38.8,32.2,25.3,85,73,52,30.32,29.92,21,8,26,0.22
2013-11-19,48.0,35.5,25.8,32.1,27.6,22.7,89,74,53,30.37,30.19,11,4,18,0.00
2013-11-20,42.0,37.1,34.3,39.0,32.7,28.9,92,84,74,30.20,30.01,12,6,17,0.42
2013-11-21,46.6,43.5,38.3,43.8,40.1,35.8,92,88,84,30.29,30.05,11,3,14,0.01
2013-11-22,38.2,31.9,21.4,35.8,28.1,18.1,92,86,76,30.59,30.28,16,7,23,0.01
2013-11-23,22.8,20.0,13.5,17.9,12.2,6.4,88,72,57,30.81,30.57,17,8,28,0.01
2013-11-24,28.7,18.8,8.5,13.8,9.4,4.4,86,68,43,30.81,30.38,10,3,17,0.00
2013-11-25,35.6,30.1,24.1,26.2,20.3,13.4,77,67,58,30.38,30.14,13,5,20,0.00
2013-11-26,32.3,26.4,18.0,25.7,18.0,8.5,92,71,49,30.31,30.12,20,8,29,0.00
2013-11-27,27.3,19.6,12.6,12.0,9.2,6.6,83,64,49,30.40,30.23,11,4,17,0.00
2013-11-28,37.3,26.8,18.4,22.1,16.8,12.1,79,66,52,30.54,30.17,14,4,20,0.00
2013-11-29,38.2,26.5,13.5,24.0,18.4,9.8,89,73,52,30.63,30.34,10,4,18,0.00
2013-11-30,51.3,39.3,30.2,36.1,30.6,24.0,85,72,55,30.34,30.07,12,4,20,0.00
2013-12-1,48.5,38.2,30.8,34.6,30.8,27.9,90,75,56,30.14,29.95,5,1,8,0.00
2013-12-2,45.1,38.0,32.2,36.2,33.0,28.7,91,82,70,29.95,29.64,9,4,20,0.00
2013-12-3,52.2,43.1,34.9,47.8,41.0,33.3,95,92,84,29.66,29.55,10,4,18,0.00
2013-12-4,54.7,44.8,28.3,52.7,42.7,23.8,96,92,83,29.87,29.48,20,6,26,0.00
2013-12-5,28.2,20.7,16.7,23.7,12.8,9.4,83,71,64,30.37,29.86,22,12,30,0.00
2013-12-6,17.3,13.8,11.0,10.4,4.9,2.7,76,68,54,30.67,30.36,14,8,20,0.00
2013-12-7,18.7,11.1,3.2,5.4,2.4,-1.5,81,68,49,30.81,30.58,10,4,15,0.00
2013-12-8,22.5,19.7,14.2,20.2,14.6,5.6,91,81,67,30.59,30.05,14,5,18,0.01
2013-12-9,21.7,12.9,2.4,19.2,6.9,-3.1,90,77,64,30.34,30.07,18,7,26,0.01
2013-12-10,25.5,16.9,2.1,13.5,7.4,-3.1,89,66,52,30.33,30.12,25,7,32,0.00
2013-12-11,22.1,15.7,4.3,15.8,7.7,-4.6,85,70,56,30.68,30.27,18,7,23,0.00
2013-12-13,30.9,30.7,30.5,29.1,28.9,28.4,93,93,92,30.03,30.00,7,4,9,0.30
2013-12-14,30.5,25.9,15.4,28.9,23.4,11.1,100,90,83,30.15,29.94,13,6,20,0.32
2013-12-15,19.1,15.9,12.8,13.2,11.1,8.0,92,81,73,30.20,30.10,17,4,21,0.01
2013-12-16,23.8,18.5,12.3,21.6,15.4,8.9,92,87,83,30.17,30.03,9,3,13,0.01
2013-12-17,37.4,27.4,18.4,30.1,20.4,13.6,92,76,52,30.24,30.11,20,6,29,0.00
2013-12-18,43.2,32.0,17.5,33.5,22.5,10.6,80,68,53,30.23,29.83,15,6,26,0.00
2013-12-19,47.7,42.4,39.7,41.8,37.0,32.8,92,82,74,29.86,29.72,11,4,18,0.00
2013-12-20,43.9,32.1,27.1,42.0,30.5,25.3,94,94,92,29.90,29.70,9,1,16,0.01
2013-12-21,30.8,27.7,25.6,29.0,25.7,23.3,93,92,91,29.90,29.66,0,0,0,0.01
2013-12-22,30.8,25.1,17.3,29.0,22.9,13.8,94,91,84,30.30,29.67,13,0,15,0.19
2013-12-23,18.3,7.2,0.2,16.1,1.0,-7.1,92,75,68,30.62,30.30,15,6,21,0.00
2013-12-24,20.1,6.0,-7.3,13.7,-0.7,-12.9,80,73,65,30.67,30.34,9,4,16,0.00
2013-12-25,30.7,26.5,20.2,26.7,22.4,13.8,91,85,76,30.34,30.19,12,5,18,0.00
2013-12-26,38.3,29.8,18.0,31.1,24.1,14.1,87,79,70,30.31,30.16,12,4,20,0.00
2013-12-27,42.9,34.8,25.7,33.8,29.3,22.9,89,81,69,30.33,30.14,12,5,18,0.00
2013-12-28,50.1,41.6,36.4,38.0,33.5,30.6,89,73,60,30.14,29.83,15,6,22,0.00
2013-12-29,40.0,19.3,3.6,31.5,13.8,-4.3,89,79,68,30.37,29.83,22,12,31,0.00
2013-12-30,18.2,8.7,0.0,12.7,1.3,-6.6,79,72,60,30.41,30.22,9,2,13,0.00
2013-12-31,25.3,16.9,10.3,18.1,11.7,6.7,92,80,71,30.42,30.22,12,5,21,0.00
2014-1-1,16.3,15.1,13.0,13.4,11.2,9.1,88,84,80,30.27,30.20,14,6,21,0.00
2014-1-2,14.1,9.7,-0.7,9.3,4.4,-5.7,84,79,73,30.54,30.25,13,6,18,0.00